createdAt,value
2018-02-20T00:01:03.530Z,100421.22
2018-02-20T00:03:31.107Z,100422.17
2018-02-20T00:05:58.676Z,100421.11
2018-02-20T00:08:26.282Z,100420.21
2018-02-20T00:10:53.855Z,100413.41
2018-02-20T00:13:21.417Z,100407.77
2018-02-20T00:15:48.989Z,100416.86
2018-02-20T00:18:16.554Z,100415.73
2018-02-20T00:20:44.140Z,100409.84
2018-02-20T00:23:11.710Z,100406.09
2018-02-20T00:25:39.328Z,100399.81
2018-02-20T00:28:06.896Z,100403.69
2018-02-20T00:30:34.468Z,100396.31
2018-02-20T00:33:02.044Z,100396.63
2018-02-20T00:35:29.608Z,100399.02
2018-02-20T00:37:57.186Z,100393.10
2018-02-20T00:40:24.750Z,100391.84
2018-02-20T00:42:52.363Z,100390.47
2018-02-20T00:45:19.934Z,100386.37
2018-02-20T00:47:47.503Z,100382.45
2018-02-20T00:50:15.084Z,100385.62
2018-02-20T00:52:42.649Z,100384.40
2018-02-20T00:55:10.217Z,100377.19
2018-02-20T00:57:37.789Z,100380.27
2018-02-20T01:00:05.407Z,100388.18
2018-02-20T01:02:32.973Z,100383.23
2018-02-20T01:05:00.538Z,100374.73
2018-02-20T01:07:28.110Z,100375.01
2018-02-20T01:09:55.655Z,100374.42
2018-02-20T01:12:23.227Z,100378.94
2018-02-20T01:14:50.794Z,100376.12
2018-02-20T01:17:18.404Z,100376.28
2018-02-20T01:19:45.971Z,100370.38
2018-02-20T01:22:13.545Z,100376.45
2018-02-20T01:24:41.123Z,100372.41
2018-02-20T01:27:08.692Z,100369.66
2018-02-20T01:29:36.266Z,100361.00
2018-02-20T01:32:03.830Z,100358.56
2018-02-20T01:34:31.442Z,100354.25
2018-02-20T01:36:58.991Z,100352.92
2018-02-20T01:39:26.558Z,100348.68
2018-02-20T01:41:54.134Z,100340.83
2018-02-20T01:44:21.710Z,100342.16
2018-02-20T01:46:49.310Z,100340.23
2018-02-20T01:49:16.879Z,100334.92
2018-02-20T01:51:44.512Z,100336.67
2018-02-20T01:54:12.077Z,100333.06
2018-02-20T01:56:39.719Z,100333.23
2018-02-20T01:59:07.297Z,100333.20
2018-02-20T02:01:34.926Z,100332.58
2018-02-20T02:04:02.499Z,100333.17
2018-02-20T02:06:30.123Z,100333.12
2018-02-20T02:08:57.751Z,100341.30
2018-02-20T02:11:25.326Z,100331.48
2018-02-20T02:13:52.892Z,100329.78
2018-02-20T02:16:20.466Z,100329.19
2018-02-20T02:18:48.109Z,100332.02
2018-02-20T02:21:15.754Z,100331.59
2018-02-20T02:23:43.320Z,100325.37
2018-02-20T02:26:10.951Z,100325.32
2018-02-20T02:28:38.601Z,100323.91
2018-02-20T02:31:06.184Z,100322.09
2018-02-20T02:33:33.768Z,100314.02
2018-02-20T02:36:01.385Z,100315.97
2018-02-20T02:38:29.203Z,100317.73
2018-02-20T02:40:56.778Z,100318.42
2018-02-20T02:43:24.485Z,100321.92
2018-02-20T02:45:52.116Z,100318.91
2018-02-20T02:48:19.756Z,100325.48
2018-02-20T02:50:47.338Z,100315.72
2018-02-20T02:53:14.915Z,100318.00
2018-02-20T02:55:42.499Z,100317.30
2018-02-20T02:58:10.074Z,100321.45
2018-02-20T03:00:37.698Z,100324.05
2018-02-20T03:03:05.299Z,100314.22
2018-02-20T03:05:32.868Z,100316.45
2018-02-20T03:08:00.430Z,100316.40
2018-02-20T03:10:27.991Z,100313.48
2018-02-20T03:12:55.566Z,100312.84
2018-02-20T03:15:23.133Z,100313.38
2018-02-20T03:17:50.810Z,100317.41
2018-02-20T03:20:18.439Z,100317.41
2018-02-20T03:22:46.010Z,100308.69
2018-02-20T03:25:13.595Z,100308.48
2018-02-20T03:27:41.162Z,100308.83
2018-02-20T03:30:08.955Z,100307.16
2018-02-20T03:32:36.597Z,100304.08
2018-02-20T03:35:04.212Z,100301.27
2018-02-20T03:37:31.800Z,100297.67
2018-02-20T03:39:59.374Z,100296.77
2018-02-20T03:42:27.015Z,100293.27
2018-02-20T03:44:54.587Z,100291.34
2018-02-20T03:47:22.175Z,100299.91
2018-02-20T03:49:49.742Z,100296.48
2018-02-20T03:52:17.373Z,100302.11
2018-02-20T03:54:44.945Z,100298.63
2018-02-20T03:57:12.514Z,100298.52
2018-02-20T03:59:40.158Z,100293.41
2018-02-20T04:02:07.731Z,100293.72
2018-02-20T04:04:35.366Z,100294.67
2018-02-20T04:07:02.994Z,100299.31
2018-02-20T04:09:30.621Z,100295.80
2018-02-20T04:11:58.530Z,100292.88
2018-02-20T04:14:26.111Z,100289.59
2018-02-20T04:16:53.922Z,100292.08
2018-02-20T04:19:21.512Z,100293.63
2018-02-20T04:21:49.115Z,100284.94
2018-02-20T04:24:17.078Z,100290.33
2018-02-20T04:26:44.730Z,100281.09
2018-02-20T04:29:12.334Z,100285.61
2018-02-20T04:31:39.934Z,100288.06
2018-02-20T04:34:07.519Z,100280.36
2018-02-20T04:36:35.067Z,100290.19
2018-02-20T04:39:02.643Z,100288.33
2018-02-20T04:41:30.215Z,100292.47
2018-02-20T04:43:57.851Z,100281.74
2018-02-20T04:46:25.426Z,100281.86
2018-02-20T04:48:53.075Z,100280.41
2018-02-20T04:51:20.650Z,100285.02
2018-02-20T04:53:48.221Z,100289.23
2018-02-20T04:56:15.858Z,100290.08
2018-02-20T04:58:43.493Z,100287.48
2018-02-20T05:01:20.570Z,100282.59
2018-02-20T05:03:48.155Z,100283.07
2018-02-20T05:06:15.792Z,100283.88
2018-02-20T05:08:43.375Z,100278.09
2018-02-20T05:11:10.943Z,100282.65
2018-02-20T05:13:38.571Z,100280.10
2018-02-20T05:16:06.155Z,100280.95
2018-02-20T05:18:33.736Z,100280.95
2018-02-20T05:21:01.314Z,100283.44
2018-02-20T05:23:28.883Z,100288.44
2018-02-20T05:25:56.510Z,100288.16
2018-02-20T05:28:24.114Z,100288.86
2018-02-20T05:30:51.673Z,100288.52
2018-02-20T05:33:19.247Z,100291.94
2018-02-20T05:35:46.809Z,100297.02
2018-02-20T05:38:14.449Z,100302.08
2018-02-20T05:40:42.028Z,100306.06
2018-02-20T05:43:09.608Z,100300.05
2018-02-20T05:45:37.195Z,100297.56
2018-02-20T05:48:04.820Z,100305.58
2018-02-20T05:50:32.469Z,100300.21
2018-02-20T05:53:00.042Z,100304.93
2018-02-20T05:55:27.627Z,100302.16
2018-02-20T05:57:55.231Z,100310.86
2018-02-20T06:00:22.827Z,100307.59
2018-02-20T06:02:50.450Z,100310.35
2018-02-20T06:05:18.096Z,100303.86
2018-02-20T06:07:45.670Z,100315.55
2018-02-20T06:10:13.251Z,100313.52
2018-02-20T06:12:40.826Z,100312.19
2018-02-20T06:15:08.458Z,100310.22
2018-02-20T06:17:36.043Z,100304.73
2018-02-20T06:20:03.637Z,100306.96
2018-02-20T06:22:31.225Z,100304.36
2018-02-20T06:24:58.800Z,100309.86
2018-02-20T06:27:26.440Z,100299.71
2018-02-20T06:29:54.072Z,100305.64
2018-02-20T06:32:21.700Z,100297.00
2018-02-20T06:34:49.289Z,100297.38
2018-02-20T06:37:16.854Z,100295.58
2018-02-20T06:39:44.429Z,100291.76
2018-02-20T06:42:12.000Z,100290.80
2018-02-20T06:44:39.628Z,100288.25
2018-02-20T06:47:07.205Z,100282.66
2018-02-20T06:49:34.765Z,100279.38
2018-02-20T06:52:02.340Z,100280.36
2018-02-20T06:54:29.909Z,100274.61
2018-02-20T06:56:57.498Z,100277.22
2018-02-20T06:59:25.074Z,100272.19
2018-02-20T07:01:52.682Z,100276.78
2018-02-20T07:04:20.251Z,100278.28
2018-02-20T07:06:47.912Z,100286.25
2018-02-20T07:09:15.490Z,100279.19
2018-02-20T07:11:43.057Z,100280.44
2018-02-20T07:14:10.693Z,100276.52
2018-02-20T07:16:38.318Z,100277.31
2018-02-20T07:19:05.942Z,100272.59
2018-02-20T07:21:33.570Z,100275.84
2018-02-20T07:24:01.133Z,100269.16
2018-02-20T07:26:28.768Z,100271.30
2018-02-20T07:28:56.406Z,100272.89
2018-02-20T07:31:23.977Z,100271.55
2018-02-20T07:33:51.542Z,100262.98
2018-02-20T07:36:19.182Z,100270.45
2018-02-20T07:38:46.785Z,100272.38
2018-02-20T07:41:14.356Z,100266.09
2018-02-20T07:43:41.932Z,100265.25
2018-02-20T07:46:09.494Z,100270.59
2018-02-20T07:48:37.058Z,100272.11
2018-02-20T07:51:04.687Z,100270.09
2018-02-20T07:53:32.307Z,100273.41
2018-02-20T07:55:59.877Z,100265.94
2018-02-20T07:58:27.442Z,100268.75
2018-02-20T08:00:55.013Z,100268.75
2018-02-20T08:03:22.575Z,100265.09
2018-02-20T08:05:50.150Z,100266.48
2018-02-20T08:08:17.774Z,100260.70
2018-02-20T08:10:45.392Z,100262.23
2018-02-20T08:13:12.938Z,100260.17
2018-02-20T08:15:40.563Z,100257.31
2018-02-20T08:18:08.139Z,100258.28
2018-02-20T08:20:35.710Z,100254.34
2018-02-20T08:23:03.282Z,100255.98
2018-02-20T08:25:30.931Z,100256.72
2018-02-20T08:27:58.618Z,100253.02
2018-02-20T08:30:26.243Z,100252.04
2018-02-20T08:32:53.874Z,100251.20
2018-02-20T08:35:21.431Z,100253.58
2018-02-20T08:37:48.991Z,100252.11
2018-02-20T08:40:16.612Z,100247.47
2018-02-20T08:42:44.175Z,100241.70
2018-02-20T08:45:11.721Z,100238.80
2018-02-20T08:47:39.300Z,100243.69
2018-02-20T08:50:06.845Z,100240.19
2018-02-20T08:52:34.421Z,100240.97
2018-02-20T08:55:02.051Z,100232.63
2018-02-20T08:57:29.672Z,100230.87
2018-02-20T08:59:57.303Z,100230.75
2018-02-20T09:02:24.862Z,100233.95
2018-02-20T09:04:52.487Z,100229.70
2018-02-20T09:07:20.108Z,100224.66
2018-02-20T09:09:47.723Z,100228.78
2018-02-20T09:12:15.271Z,100225.86
2018-02-20T09:14:42.851Z,100225.02
2018-02-20T09:17:10.464Z,100227.43
2018-02-20T09:19:38.029Z,100228.47
2018-02-20T09:22:05.629Z,100230.98
2018-02-20T09:24:33.255Z,100218.97
2018-02-20T09:27:00.866Z,100223.33
2018-02-20T09:29:28.481Z,100220.53
2018-02-20T09:31:56.117Z,100217.13
2018-02-20T09:34:23.693Z,100219.08
2018-02-20T09:36:51.320Z,100220.45
2018-02-20T09:39:18.971Z,100213.17
2018-02-20T09:41:46.532Z,100205.47
2018-02-20T09:44:14.284Z,100208.00
2018-02-20T09:46:41.846Z,100209.07
2018-02-20T09:49:09.419Z,100205.27
2018-02-20T09:51:37.073Z,100198.98
2018-02-20T09:54:04.683Z,100193.05
2018-02-20T09:56:32.246Z,100195.45
2018-02-20T09:58:59.816Z,100186.71
2018-02-20T10:01:27.502Z,100185.45
2018-02-20T10:03:55.177Z,100178.81
2018-02-20T10:06:22.727Z,100183.32
2018-02-20T10:08:50.302Z,100177.88
2018-02-20T10:11:17.873Z,100173.70
2018-02-20T10:13:45.516Z,100177.97
2018-02-20T10:16:13.093Z,100171.53
2018-02-20T10:18:40.724Z,100177.77
2018-02-20T10:21:08.347Z,100177.46
2018-02-20T10:23:35.972Z,100168.00
2018-02-20T10:26:03.557Z,100165.20
2018-02-20T10:28:31.183Z,100159.94
2018-02-20T10:30:58.759Z,100146.95
2018-02-20T10:33:26.324Z,100148.28
2018-02-20T10:35:54.010Z,100150.26
2018-02-20T10:38:21.585Z,100151.98
2018-02-20T10:40:49.155Z,100146.33
2018-02-20T10:43:16.732Z,100144.39
2018-02-20T10:45:44.291Z,100144.64
2018-02-20T10:48:11.862Z,100149.17
2018-02-20T10:50:39.443Z,100142.70
2018-02-20T10:53:07.104Z,100138.00
2018-02-20T10:55:34.738Z,100136.73
2018-02-20T10:58:02.318Z,100132.88
2018-02-20T11:00:29.894Z,100131.44
2018-02-20T11:02:57.454Z,100128.31
2018-02-20T11:05:25.102Z,100127.20
2018-02-20T11:07:52.666Z,100125.99
2018-02-20T11:10:20.287Z,100115.31
2018-02-20T11:12:47.846Z,100118.75
2018-02-20T11:15:15.416Z,100111.30
2018-02-20T11:17:42.986Z,100110.27
2018-02-20T11:20:10.611Z,100106.11
2018-02-20T11:22:38.180Z,100096.12
2018-02-20T11:25:05.798Z,100094.14
2018-02-20T11:27:33.427Z,100101.23
2018-02-20T11:30:01.051Z,100106.33
2018-02-20T11:32:28.615Z,100086.76
2018-02-20T11:34:56.260Z,100087.61
2018-02-20T11:37:23.826Z,100086.86
2018-02-20T11:40:02.161Z,100088.75
2018-02-20T11:42:30.323Z,100094.24
2018-02-20T11:44:58.027Z,100080.75
2018-02-20T11:47:25.602Z,100091.08
2018-02-20T11:49:53.172Z,100082.66
2018-02-20T11:52:20.758Z,100082.73
2018-02-20T11:54:48.358Z,100080.48
2018-02-20T11:57:15.940Z,100076.20
2018-02-20T11:59:43.517Z,100076.12
2018-02-20T12:02:11.213Z,100072.61
2018-02-20T12:04:39.040Z,100076.95
2018-02-20T12:07:06.942Z,100070.02
2018-02-20T12:09:34.614Z,100070.52
2018-02-20T12:12:02.237Z,100062.45
2018-02-20T12:14:29.893Z,100060.84
2018-02-20T12:16:57.465Z,100059.43
2018-02-20T12:19:25.151Z,100054.37
2018-02-20T12:21:52.723Z,100052.11
2018-02-20T12:24:20.272Z,100056.23
2018-02-20T12:26:47.896Z,100049.42
2018-02-20T12:29:15.603Z,100041.66
2018-02-20T12:31:43.244Z,100045.63
2018-02-20T12:34:10.886Z,100041.73
2018-02-20T12:36:38.526Z,100044.45
2018-02-20T12:39:06.110Z,100035.97
2018-02-20T12:41:33.679Z,100043.20
2018-02-20T12:44:01.250Z,100040.19
2018-02-20T12:46:28.886Z,100042.86
2018-02-20T12:48:56.476Z,100031.44
2018-02-20T12:51:24.050Z,100033.17
2018-02-20T12:53:51.727Z,100028.88
2018-02-20T12:56:19.302Z,100022.05
2018-02-20T12:58:46.861Z,100012.73
2018-02-20T13:01:14.510Z,100026.28
2018-02-20T13:03:42.082Z,100025.08
2018-02-20T13:06:09.710Z,100028.66
2018-02-20T13:08:37.340Z,100021.70
2018-02-20T13:11:04.970Z,100023.47
2018-02-20T13:13:32.595Z,100020.94
2018-02-20T13:16:00.154Z,100022.38
2018-02-20T13:18:27.724Z,100020.59
2018-02-20T13:23:53.594Z,100020.96
2018-02-20T13:26:21.164Z,100022.95
2018-02-20T13:28:48.735Z,100022.30
2018-02-20T13:31:16.309Z,100019.64
2018-02-20T13:33:43.891Z,100015.51
2018-02-20T13:36:11.459Z,100017.20
2018-02-20T13:38:39.058Z,100008.56
2018-02-20T13:41:06.633Z,100017.33
2018-02-20T13:43:34.202Z,100007.73
2018-02-20T13:46:01.827Z,100012.36
2018-02-20T13:48:29.410Z,100004.83
2018-02-20T13:50:57.033Z,100004.14
2018-02-20T13:53:24.595Z,99998.09
2018-02-20T13:55:52.862Z,100001.48
2018-02-20T13:58:20.418Z,100000.47
2018-02-20T14:00:48.074Z,100009.05
2018-02-20T14:03:15.635Z,100001.44
2018-02-20T14:05:43.347Z,99999.80
2018-02-20T14:08:10.914Z,100001.05
2018-02-20T14:10:38.474Z,100000.70
2018-02-20T14:13:06.054Z,100001.56
2018-02-20T14:15:33.675Z,99994.38
2018-02-20T14:18:01.323Z,99998.89
2018-02-20T14:20:28.886Z,99997.34
2018-02-20T14:22:56.486Z,99985.41
2018-02-20T14:25:24.064Z,99992.09
2018-02-20T14:27:51.619Z,99987.58
2018-02-20T14:30:19.215Z,99985.50
2018-02-20T14:32:46.866Z,99987.33
2018-02-20T14:37:48.304Z,99981.34
2018-02-20T14:40:15.858Z,99985.50
2018-02-20T14:42:43.441Z,99985.91
2018-02-20T14:45:11.154Z,99980.45
2018-02-20T14:47:38.941Z,99975.67
2018-02-20T14:50:06.515Z,99983.16
2018-02-20T14:52:34.154Z,99985.58
2018-02-20T14:55:01.724Z,99982.12
2018-02-20T14:57:29.351Z,99989.83
2018-02-20T14:59:57.011Z,99986.19
2018-02-20T15:02:25.493Z,99990.75
2018-02-20T15:04:53.606Z,99990.06
2018-02-20T15:07:21.184Z,99991.09
2018-02-20T15:09:48.807Z,99989.20
2018-02-20T15:12:16.479Z,99986.11
2018-02-20T15:14:44.042Z,99994.66
2018-02-20T15:17:11.633Z,99992.59
2018-02-20T15:19:39.210Z,99991.04
2018-02-20T15:22:06.774Z,99993.92
2018-02-20T15:24:34.398Z,99990.69
2018-02-20T15:27:01.960Z,99991.02
2018-02-20T15:29:29.585Z,99988.36
2018-02-20T15:31:57.230Z,99995.30
2018-02-20T15:34:25.154Z,99992.09
2018-02-20T15:36:52.774Z,99996.64
2018-02-20T15:39:20.422Z,99995.22
2018-02-20T15:41:47.987Z,100002.23
2018-02-20T15:44:15.621Z,99998.24
2018-02-20T15:46:43.195Z,99993.90
2018-02-20T15:49:10.869Z,99992.92
2018-02-20T15:51:38.423Z,99996.22
2018-02-20T15:54:05.980Z,99993.42
2018-02-20T15:56:33.608Z,99997.00
2018-02-20T15:59:01.247Z,99994.75
2018-02-20T16:01:28.872Z,99997.97
2018-02-20T16:03:56.430Z,99993.48
2018-02-20T16:06:24.110Z,99998.23
2018-02-20T16:08:51.653Z,99998.61
2018-02-20T16:11:19.242Z,100000.23
2018-02-20T16:13:46.924Z,99998.41
2018-02-20T16:16:15.034Z,99996.52
2018-02-20T16:18:42.672Z,99999.38
2018-02-20T16:21:10.305Z,99994.59
2018-02-20T16:26:11.623Z,99992.64
2018-02-20T16:28:39.288Z,99996.50
2018-02-20T16:31:06.859Z,99996.51
2018-02-20T16:33:34.618Z,100000.41
2018-02-20T16:36:02.180Z,99996.00
2018-02-20T16:38:29.831Z,99993.33
2018-02-20T16:40:57.454Z,99997.14
2018-02-20T16:43:25.095Z,99994.24
2018-02-20T16:45:53.498Z,99999.02
2018-02-20T16:48:21.128Z,99995.86
2018-02-20T16:50:48.715Z,99991.17
2018-02-20T16:53:16.367Z,99999.58
2018-02-20T16:55:44.037Z,100000.09
2018-02-20T16:58:11.615Z,99998.90
2018-02-20T17:00:39.175Z,99997.41
2018-02-20T17:03:06.781Z,100002.09
2018-02-20T17:05:34.342Z,99998.52
2018-02-20T17:08:01.911Z,99997.89
2018-02-20T17:10:29.471Z,99994.66
2018-02-20T17:12:57.224Z,99999.35
2018-02-20T17:15:25.290Z,100002.23
2018-02-20T17:17:52.971Z,99991.49
2018-02-20T17:20:20.564Z,99998.59
2018-02-20T17:22:48.132Z,99994.88
2018-02-20T17:25:15.712Z,99991.25
2018-02-20T17:27:43.357Z,99998.39
2018-02-20T17:30:10.947Z,99993.19
2018-02-20T17:32:38.531Z,100000.62
2018-02-20T17:35:06.143Z,99995.09
2018-02-20T17:37:33.724Z,99997.55
2018-02-20T17:40:01.361Z,99998.92
2018-02-20T17:42:29.001Z,99998.16
2018-02-20T17:44:56.621Z,99999.91
2018-02-20T17:47:24.282Z,100002.87
2018-02-20T17:49:51.867Z,100004.90
2018-02-20T17:52:19.500Z,100006.09
2018-02-20T17:54:47.131Z,100003.41
2018-02-20T17:57:14.698Z,99993.73
2018-02-20T17:59:42.260Z,99992.40
2018-02-20T18:02:09.827Z,99991.16
2018-02-20T18:04:37.405Z,99998.16
2018-02-20T18:07:05.028Z,99994.50
2018-02-20T18:09:32.605Z,99988.97
2018-02-20T18:12:00.185Z,99997.88
2018-02-20T18:14:27.807Z,99988.83
2018-02-20T18:16:55.385Z,99986.34
2018-02-20T18:19:22.952Z,99987.59
2018-02-20T18:21:50.531Z,99990.11
2018-02-20T18:24:18.163Z,99987.44
2018-02-20T18:26:45.728Z,99993.91
2018-02-20T18:29:13.304Z,99997.25
2018-02-20T18:31:40.918Z,99997.74
2018-02-20T18:34:08.492Z,99999.31
2018-02-20T18:36:36.124Z,99999.38
2018-02-20T18:39:03.763Z,100001.83
2018-02-20T18:41:31.431Z,100001.47
2018-02-20T18:43:58.997Z,100002.31
2018-02-20T18:46:26.563Z,99994.10
2018-02-20T18:48:54.208Z,99996.56
2018-02-20T18:51:21.798Z,99994.10
2018-02-20T18:53:49.354Z,99990.67
2018-02-20T18:56:16.923Z,99990.89
2018-02-20T18:58:44.555Z,99982.34
2018-02-20T19:01:12.180Z,99989.67
2018-02-20T19:03:39.747Z,99982.25
2018-02-20T19:06:07.319Z,99982.39
2018-02-20T19:08:34.900Z,99983.02
2018-02-20T19:11:02.568Z,99978.27
2018-02-20T19:13:30.189Z,99979.33
2018-02-20T19:15:57.827Z,99975.45
2018-02-20T19:18:25.504Z,99976.78
2018-02-20T19:20:53.067Z,99974.66
2018-02-20T19:23:20.697Z,99969.07
2018-02-20T19:25:48.268Z,99973.42
2018-02-20T19:28:15.887Z,99973.98
2018-02-20T19:30:43.466Z,99970.81
2018-02-20T19:33:11.068Z,99967.25
2018-02-20T19:35:38.714Z,99968.84
2018-02-20T19:38:06.279Z,99969.13
2018-02-20T19:40:33.876Z,99964.45
2018-02-20T19:43:01.463Z,99965.44
2018-02-20T19:45:29.094Z,99962.07
2018-02-20T19:47:56.667Z,99968.93
2018-02-20T19:50:24.234Z,99968.84
2018-02-20T19:52:51.862Z,99969.47
2018-02-20T19:55:19.439Z,99966.27
2018-02-20T19:57:47.084Z,99968.84
2018-02-20T20:00:14.795Z,99966.11
2018-02-20T20:02:42.363Z,99966.83
2018-02-20T20:05:09.992Z,99967.25
2018-02-20T20:07:37.568Z,99963.61
2018-02-20T20:10:05.199Z,99958.98
2018-02-20T20:12:32.830Z,99959.27
2018-02-20T20:15:00.396Z,99961.03
2018-02-20T20:17:27.975Z,99960.73
2018-02-20T20:19:55.627Z,99955.41
2018-02-20T20:22:23.197Z,99954.50
2018-02-20T20:24:50.905Z,99949.39
2018-02-20T20:27:18.583Z,99943.36
2018-02-20T20:29:46.191Z,99949.38
2018-02-20T20:32:13.828Z,99947.90
2018-02-20T20:34:41.470Z,99946.21
2018-02-20T20:37:09.097Z,99938.94
2018-02-20T20:39:36.667Z,99942.80
2018-02-20T20:42:04.231Z,99940.41
2018-02-20T20:44:31.807Z,99932.97
2018-02-20T20:46:59.431Z,99932.05
2018-02-20T20:49:27.053Z,99936.55
2018-02-20T20:51:54.676Z,99937.46
2018-02-20T20:54:22.305Z,99932.33
2018-02-20T20:56:49.963Z,99933.55
2018-02-20T20:59:17.548Z,99935.34
2018-02-20T21:01:45.174Z,99935.70
2018-02-20T21:04:12.799Z,99931.28
2018-02-20T21:06:40.458Z,99935.06
2018-02-20T21:09:08.042Z,99934.51
2018-02-20T21:11:35.616Z,99936.06
2018-02-20T21:14:03.243Z,99932.70
2018-02-20T21:16:30.819Z,99932.69
2018-02-20T21:18:58.384Z,99936.40
2018-02-20T21:21:26.014Z,99933.31
2018-02-20T21:23:53.620Z,99933.62
2018-02-20T21:26:21.316Z,99933.68
2018-02-20T21:28:48.897Z,99929.25
2018-02-20T21:31:16.528Z,99931.06
2018-02-20T21:33:44.100Z,99933.81
2018-02-20T21:36:11.899Z,99929.67
2018-02-20T21:38:39.553Z,99934.64
2018-02-20T21:41:07.160Z,99932.34
2018-02-20T21:43:34.812Z,99923.31
2018-02-20T21:46:02.405Z,99933.86
2018-02-20T21:48:30.033Z,99926.29
2018-02-20T21:50:57.659Z,99924.91
2018-02-20T21:53:25.296Z,99925.87
2018-02-20T21:55:52.873Z,99919.73
2018-02-20T21:58:20.463Z,99923.09
2018-02-20T22:00:48.085Z,99925.18
2018-02-20T22:03:15.789Z,99929.11
2018-02-20T22:05:43.358Z,99925.67
2018-02-20T22:08:10.927Z,99922.64
2018-02-20T22:10:38.570Z,99923.20
2018-02-20T22:13:06.130Z,99926.79
2018-02-20T22:15:33.813Z,99919.14
2018-02-20T22:18:01.391Z,99926.73
2018-02-20T22:20:28.962Z,99928.81
2018-02-20T22:22:56.523Z,99928.41
2018-02-20T22:25:24.087Z,99929.19
2018-02-20T22:27:51.760Z,99927.56
2018-02-20T22:30:19.392Z,99922.66
2018-02-20T22:32:46.961Z,99923.09
2018-02-20T22:35:14.537Z,99920.40
2018-02-20T22:37:42.096Z,99922.93
2018-02-20T22:40:09.750Z,99914.11
2018-02-20T22:42:37.375Z,99907.43
2018-02-20T22:45:04.934Z,99904.28
2018-02-20T22:47:32.555Z,99897.98
2018-02-20T22:50:00.116Z,99894.31
2018-02-20T22:52:27.724Z,99899.23
2018-02-20T22:54:55.282Z,99894.87
2018-02-20T22:57:22.895Z,99896.14
2018-02-20T22:59:50.476Z,99889.27
2018-02-20T23:02:18.096Z,99892.48
2018-02-20T23:04:45.718Z,99891.65
2018-02-20T23:07:13.248Z,99894.59
2018-02-20T23:09:40.811Z,99888.94
2018-02-20T23:12:08.466Z,99886.34
2018-02-20T23:14:36.101Z,99889.28
2018-02-20T23:17:03.726Z,99879.66
2018-02-20T23:19:31.278Z,99881.92
2018-02-20T23:21:58.839Z,99886.69
2018-02-20T23:24:26.404Z,99885.78
2018-02-20T23:26:53.958Z,99881.50
2018-02-20T23:29:21.617Z,99880.93
2018-02-20T23:31:49.174Z,99879.63
2018-02-20T23:36:58.807Z,99882.77
2018-02-20T23:39:26.379Z,99880.66
2018-02-20T23:41:53.954Z,99881.01
2018-02-20T23:44:21.506Z,99882.42
2018-02-20T23:46:49.123Z,99883.19
2018-02-20T23:49:16.695Z,99883.73
2018-02-20T23:51:44.243Z,99882.89
2018-02-20T23:54:11.828Z,99881.20
2018-02-20T23:56:39.446Z,99882.47
2018-02-20T23:59:07.018Z,99888.73
